createdAt,value
2019-04-10T00:01:23.876Z,18.92
2019-04-10T00:03:56.765Z,21.25
2019-04-10T00:06:28.309Z,21.93
2019-04-10T00:09:00.898Z,20.37
2019-04-10T00:11:34.585Z,20.20
2019-04-10T00:14:06.731Z,21.35
2019-04-10T00:16:38.393Z,19.95
2019-04-10T00:19:10.669Z,21.17
2019-04-10T00:21:42.357Z,21.02
2019-04-10T00:24:14.268Z,22.17
2019-04-10T00:26:45.926Z,22.20
2019-04-10T00:29:18.249Z,23.80
2019-04-10T00:31:50.723Z,22.67
2019-04-10T00:34:23.257Z,24.90
2019-04-10T00:36:55.162Z,25.15
2019-04-10T00:39:26.731Z,24.90
2019-04-10T00:41:58.804Z,24.52
2019-04-10T00:44:30.453Z,24.35
2019-04-10T00:47:02.460Z,24.63
2019-04-10T00:49:34.101Z,23.52
2019-04-10T00:52:05.994Z,20.97
2019-04-10T00:54:37.548Z,19.27
2019-04-10T00:57:09.427Z,17.12
2019-04-10T00:59:42.159Z,19.20
2019-04-10T01:02:13.774Z,18.73
2019-04-10T01:04:45.322Z,18.55
2019-04-10T01:07:16.922Z,19.35
2019-04-10T01:09:48.533Z,21.37
2019-04-10T01:12:20.050Z,21.05
2019-04-10T01:14:51.557Z,21.65
2019-04-10T01:17:24.032Z,20.48
2019-04-10T01:19:56.506Z,19.85
2019-04-10T01:22:27.850Z,18.50
2019-04-10T01:25:00.277Z,18.27
2019-04-10T01:27:32.025Z,18.55
2019-04-10T01:30:04.294Z,17.77
2019-04-10T01:32:36.370Z,17.57
2019-04-10T01:35:08.536Z,17.95
2019-04-10T01:37:48.912Z,17.13
2019-04-10T01:40:13.093Z,17.80
2019-04-10T01:42:58.965Z,17.50
2019-04-10T01:45:17.803Z,17.57
2019-04-10T01:47:49.422Z,19.37
2019-04-10T01:50:22.143Z,17.25
2019-04-10T01:52:53.970Z,16.00
2019-04-10T01:55:28.877Z,16.67
2019-04-10T01:58:00.898Z,16.85
2019-04-10T02:00:34.140Z,16.57
2019-04-10T02:03:05.658Z,16.93
2019-04-10T02:05:36.983Z,18.62
2019-04-10T02:08:11.396Z,16.67
2019-04-10T02:10:42.544Z,14.78
2019-04-10T02:13:14.926Z,15.90
2019-04-10T02:15:46.556Z,14.83
2019-04-10T02:18:17.972Z,15.95
2019-04-10T02:20:49.492Z,15.43
2019-04-10T02:23:21.078Z,16.07
2019-04-10T02:25:52.839Z,17.10
2019-04-10T02:28:24.231Z,16.52
2019-04-10T02:30:56.660Z,15.80
2019-04-10T02:33:29.347Z,16.55
2019-04-10T02:36:01.599Z,17.82
2019-04-10T02:38:49.206Z,17.05
2019-04-10T02:41:08.501Z,17.80
2019-04-10T02:43:39.958Z,16.45
2019-04-10T02:46:11.504Z,18.00
2019-04-10T02:48:44.181Z,17.98
2019-04-10T02:51:15.708Z,18.25
2019-04-10T02:53:48.085Z,18.05
2019-04-10T02:56:21.642Z,17.57
2019-04-10T02:58:54.349Z,18.25
2019-04-10T03:01:27.230Z,19.32
2019-04-10T03:03:59.222Z,18.87
2019-04-10T03:06:31.215Z,17.95
2019-04-10T03:09:21.795Z,18.35
2019-04-10T03:11:36.238Z,18.80
2019-04-10T03:14:08.083Z,17.23
2019-04-10T03:16:39.578Z,18.62
2019-04-10T03:19:11.648Z,17.73
2019-04-10T03:21:45.026Z,18.90
2019-04-10T03:24:16.340Z,19.50
2019-04-10T03:26:48.018Z,19.32
2019-04-10T03:29:19.877Z,19.42
2019-04-10T03:31:54.697Z,19.95
2019-04-10T03:34:33.224Z,20.25
2019-04-10T03:37:04.349Z,18.62
2019-04-10T03:39:36.039Z,20.62
2019-04-10T03:42:08.533Z,19.40
2019-04-10T03:44:40.949Z,19.32
2019-04-10T03:47:13.256Z,19.27
2019-04-10T03:49:44.898Z,19.05
2019-04-10T03:52:18.930Z,20.15
2019-04-10T03:54:50.433Z,20.23
2019-04-10T03:57:22.628Z,20.32
2019-04-10T03:59:53.915Z,21.12
2019-04-10T04:02:25.498Z,20.52
2019-04-10T04:04:56.801Z,19.87
2019-04-10T04:07:28.669Z,20.75
2019-04-10T04:10:00.261Z,20.12
2019-04-10T04:12:32.842Z,21.30
2019-04-10T04:15:05.390Z,21.05
2019-04-10T04:17:36.639Z,22.40
2019-04-10T04:20:08.345Z,22.40
2019-04-10T04:22:39.726Z,22.87
2019-04-10T04:25:11.461Z,22.87
2019-04-10T04:27:42.703Z,21.65
2019-04-10T04:30:14.783Z,21.12
2019-04-10T04:32:46.299Z,21.68
2019-04-10T04:35:17.661Z,22.73
2019-04-10T04:37:50.491Z,20.95
2019-04-10T04:40:21.981Z,23.00
2019-04-10T04:42:53.947Z,23.22
2019-04-10T04:45:25.735Z,22.85
2019-04-10T04:47:57.623Z,22.15
2019-04-10T04:50:29.348Z,21.95
2019-04-10T04:53:00.647Z,22.07
2019-04-10T04:55:33.150Z,24.37
2019-04-10T04:58:04.482Z,21.02
2019-04-10T05:00:35.958Z,22.15
2019-04-10T05:03:07.770Z,21.05
2019-04-10T05:05:39.449Z,20.92
2019-04-10T05:08:10.795Z,20.00
2019-04-10T05:10:42.364Z,21.23
2019-04-10T05:13:13.799Z,21.17
2019-04-10T05:15:45.112Z,20.63
2019-04-10T05:18:16.705Z,21.30
2019-04-10T05:20:50.491Z,21.52
2019-04-10T05:23:22.368Z,20.60
2019-04-10T05:25:54.028Z,20.45
2019-04-10T05:28:26.594Z,22.35
2019-04-10T05:30:58.932Z,22.17
2019-04-10T05:33:30.999Z,21.83
2019-04-10T05:36:02.014Z,22.87
2019-04-10T05:38:33.455Z,24.77
2019-04-10T05:41:04.807Z,24.50
2019-04-10T05:43:36.238Z,23.83
2019-04-10T05:46:07.526Z,24.30
2019-04-10T05:48:39.768Z,23.57
2019-04-10T05:51:11.005Z,23.60
2019-04-10T05:53:42.997Z,23.90
2019-04-10T05:56:15.901Z,22.87
2019-04-10T05:58:47.083Z,23.20
2019-04-10T06:01:29.907Z,24.43
2019-04-10T06:03:51.039Z,22.63
2019-04-10T06:06:22.295Z,21.07
2019-04-10T06:08:53.357Z,22.00
2019-04-10T06:11:24.740Z,21.87
2019-04-10T06:13:56.919Z,20.90
2019-04-10T06:16:28.262Z,20.53
2019-04-10T06:18:59.784Z,19.83
2019-04-10T06:21:31.389Z,20.83
2019-04-10T06:24:03.868Z,20.33
2019-04-10T06:26:35.499Z,19.80
2019-04-10T06:29:06.794Z,19.90
2019-04-10T06:31:38.937Z,20.07
2019-04-10T06:34:11.143Z,21.37
2019-04-10T06:36:43.803Z,22.00
2019-04-10T06:39:16.432Z,22.48
2019-04-10T06:41:48.798Z,21.03
2019-04-10T06:44:21.803Z,22.93
2019-04-10T06:46:53.108Z,23.67
2019-04-10T06:49:24.865Z,25.40
2019-04-10T06:51:55.909Z,22.60
2019-04-10T06:54:26.981Z,22.50
2019-04-10T06:56:58.731Z,21.87
2019-04-10T06:59:30.467Z,21.87
2019-04-10T07:02:13.136Z,24.40
2019-04-10T07:04:44.229Z,21.25
2019-04-10T07:07:12.647Z,21.37
2019-04-10T07:09:42.058Z,20.53
2019-04-10T07:12:14.376Z,21.07
2019-04-10T07:14:49.096Z,20.97
2019-04-10T07:17:19.946Z,21.00
2019-04-10T07:19:51.411Z,21.63
2019-04-10T07:22:22.937Z,19.83
2019-04-10T07:24:54.485Z,23.37
2019-04-10T07:27:26.071Z,23.87
2019-04-10T07:29:59.539Z,21.50
2019-04-10T07:32:30.925Z,23.03
2019-04-10T07:35:03.285Z,21.90
2019-04-10T07:37:36.008Z,22.87
2019-04-10T07:40:08.897Z,23.90
2019-04-10T07:42:41.871Z,22.57
2019-04-10T07:45:13.036Z,23.00
2019-04-10T07:47:44.173Z,23.97
2019-04-10T07:50:16.510Z,25.30
2019-04-10T07:52:47.919Z,24.30
2019-04-10T07:55:19.104Z,23.50
2019-04-10T07:57:51.819Z,22.77
2019-04-10T08:00:25.400Z,24.23
2019-04-10T08:02:57.623Z,22.47
2019-04-10T08:05:29.588Z,23.07
2019-04-10T08:08:01.036Z,20.43
2019-04-10T08:10:32.774Z,20.70
2019-04-10T08:13:04.585Z,19.30
2019-04-10T08:15:35.789Z,19.03
2019-04-10T08:18:07.123Z,19.77
2019-04-10T08:20:38.408Z,19.70
2019-04-10T08:23:10.204Z,18.80
2019-04-10T08:25:43.118Z,18.83
2019-04-10T08:28:15.380Z,18.87
2019-04-10T08:30:46.572Z,18.73
2019-04-10T08:33:18.122Z,18.43
2019-04-10T08:35:49.528Z,17.67
2019-04-10T08:38:21.827Z,18.40
2019-04-10T08:40:53.037Z,18.53
2019-04-10T08:43:24.994Z,18.10
2019-04-10T08:45:56.852Z,18.03
2019-04-10T08:48:30.121Z,17.43
2019-04-10T08:51:01.039Z,18.77
2019-04-10T08:53:32.029Z,17.80
2019-04-10T08:56:04.426Z,18.33
2019-04-10T08:58:35.561Z,18.47
2019-04-10T09:01:07.218Z,18.43
2019-04-10T09:03:39.216Z,17.70
2019-04-10T09:06:11.306Z,18.83
2019-04-10T09:08:43.600Z,19.50
2019-04-10T09:11:23.834Z,20.07
2019-04-10T09:13:48.615Z,31.80
2019-04-10T09:16:20.437Z,22.50
2019-04-10T09:18:51.657Z,18.73
2019-04-10T09:21:23.469Z,19.83
2019-04-10T09:23:57.288Z,18.07
2019-04-10T09:26:28.626Z,17.80
2019-04-10T09:28:59.770Z,18.20
2019-04-10T09:31:31.556Z,17.83
2019-04-10T09:34:03.764Z,18.40
2019-04-10T09:36:35.510Z,16.60
2019-04-10T09:39:09.563Z,17.07
2019-04-10T09:41:41.854Z,15.97
2019-04-10T09:44:14.355Z,15.77
2019-04-10T09:46:45.687Z,15.47
2019-04-10T09:49:16.709Z,16.53
2019-04-10T09:51:48.881Z,14.83
2019-04-10T09:54:20.062Z,14.80
2019-04-10T09:56:51.290Z,13.97
2019-04-10T09:59:34.910Z,14.93
2019-04-10T10:01:56.330Z,12.30
2019-04-10T10:04:27.720Z,12.00
2019-04-10T10:06:59.816Z,12.07
2019-04-10T10:09:30.788Z,12.43
2019-04-10T10:12:03.165Z,11.00
2019-04-10T10:14:34.326Z,12.10
2019-04-10T10:17:06.510Z,12.07
2019-04-10T10:19:39.152Z,12.37
2019-04-10T10:22:10.328Z,13.73
2019-04-10T10:24:42.630Z,12.07
2019-04-10T10:27:13.827Z,14.03
2019-04-10T10:29:44.795Z,13.13
2019-04-10T10:32:17.129Z,12.73
2019-04-10T10:34:48.237Z,12.10
2019-04-10T10:37:19.279Z,12.30
2019-04-10T10:39:51.540Z,13.57
2019-04-10T10:42:23.424Z,12.50
2019-04-10T10:44:54.737Z,12.13
2019-04-10T10:47:26.302Z,11.97
2019-04-10T10:49:57.749Z,12.67
2019-04-10T10:52:29.059Z,13.13
2019-04-10T10:55:01.052Z,13.00
2019-04-10T10:57:33.325Z,13.00
2019-04-10T11:00:06.193Z,14.37
2019-04-10T11:02:37.976Z,13.23
2019-04-10T11:05:10.637Z,13.23
2019-04-10T11:07:42.879Z,12.30
2019-04-10T11:10:14.811Z,12.60
2019-04-10T11:12:46.596Z,12.47
2019-04-10T11:15:18.589Z,13.10
2019-04-10T11:17:50.130Z,12.47
2019-04-10T11:20:21.645Z,12.53
2019-04-10T11:22:53.629Z,12.50
2019-04-10T11:25:26.123Z,12.63
2019-04-10T11:27:58.465Z,12.70
2019-04-10T11:30:29.944Z,12.47
2019-04-10T11:33:02.529Z,11.97
2019-04-10T11:35:33.666Z,12.87
2019-04-10T11:38:05.827Z,12.57
2019-04-10T11:40:38.877Z,13.43
2019-04-10T11:43:12.323Z,14.23
2019-04-10T11:45:49.097Z,12.90
2019-04-10T11:48:18.215Z,13.70
2019-04-10T11:50:51.013Z,14.47
2019-04-10T11:53:24.015Z,13.10
2019-04-10T11:55:56.995Z,12.20
2019-04-10T11:58:29.096Z,12.30
2019-04-10T12:01:02.500Z,12.20
2019-04-10T12:03:34.948Z,11.67
2019-04-10T12:06:07.170Z,12.40
2019-04-10T12:09:04.453Z,12.40
2019-04-10T12:11:15.509Z,11.57
2019-04-10T12:13:44.264Z,13.00
2019-04-10T12:16:15.303Z,12.73
2019-04-10T12:18:46.797Z,12.83
2019-04-10T12:21:18.117Z,13.53
2019-04-10T12:23:50.205Z,12.77
2019-04-10T12:26:22.059Z,12.97
2019-04-10T12:28:53.962Z,13.43
2019-04-10T12:31:26.011Z,12.90
2019-04-10T12:33:57.420Z,13.30
2019-04-10T12:36:28.782Z,11.63
2019-04-10T12:39:00.363Z,9.90
2019-04-10T12:41:33.239Z,10.33
2019-04-10T12:44:05.603Z,9.40
2019-04-10T12:46:37.327Z,10.10
2019-04-10T12:49:09.480Z,11.00
2019-04-10T12:51:41.555Z,10.50
2019-04-10T12:54:12.827Z,11.60
2019-04-10T12:56:43.779Z,10.53
2019-04-10T12:59:15.236Z,11.67
2019-04-10T13:01:47.332Z,11.20
2019-04-10T13:04:20.798Z,10.80
2019-04-10T13:06:52.786Z,10.47
2019-04-10T13:09:24.273Z,9.57
2019-04-10T13:12:00.693Z,9.87
2019-04-10T13:14:32.796Z,10.47
2019-04-10T13:17:04.716Z,9.90
2019-04-10T13:19:35.791Z,9.80
2019-04-10T13:22:07.571Z,16.10
2019-04-10T13:24:38.885Z,10.83
2019-04-10T13:27:10.403Z,10.87
2019-04-10T13:29:42.654Z,12.03
2019-04-10T13:32:13.969Z,9.50
2019-04-10T13:34:45.779Z,9.60
2019-04-10T13:37:17.983Z,11.00
2019-04-10T13:39:49.062Z,10.80
2019-04-10T13:42:21.029Z,10.63
2019-04-10T13:44:52.913Z,11.60
2019-04-10T13:47:24.285Z,11.07
2019-04-10T13:49:55.631Z,10.57
2019-04-10T13:52:27.895Z,11.63
2019-04-10T13:54:59.066Z,11.73
2019-04-10T13:57:30.685Z,10.80
2019-04-10T14:00:02.129Z,10.40
2019-04-10T14:02:37.543Z,10.57
2019-04-10T14:05:11.743Z,11.23
2019-04-10T14:07:44.238Z,10.40
2019-04-10T14:10:16.667Z,11.63
2019-04-10T14:12:47.974Z,10.20
2019-04-10T14:15:20.202Z,10.50
2019-04-10T14:17:52.134Z,10.50
2019-04-10T14:20:24.107Z,10.50
2019-04-10T14:23:18.008Z,11.23
2019-04-10T14:26:24.513Z,11.03
2019-04-10T14:28:55.622Z,10.63
2019-04-10T14:31:32.220Z,12.27
2019-04-10T14:34:04.930Z,12.23
2019-04-10T14:36:36.665Z,13.00
2019-04-10T14:39:17.632Z,12.97
2019-04-10T14:41:46.423Z,14.17
2019-04-10T14:44:17.905Z,14.53
2019-04-10T14:46:49.685Z,15.50
2019-04-10T14:49:20.924Z,14.60
2019-04-10T14:51:52.659Z,13.97
2019-04-10T14:54:23.928Z,13.20
2019-04-10T14:56:55.327Z,14.83
2019-04-10T14:59:26.306Z,12.80
2019-04-10T15:01:58.044Z,13.30
2019-04-10T15:04:29.166Z,12.30
2019-04-10T15:07:01.743Z,14.03
2019-04-10T15:09:33.129Z,14.10
2019-04-10T15:12:04.937Z,12.53
2019-04-10T15:14:36.135Z,13.43
2019-04-10T15:17:09.180Z,13.87
2019-04-10T15:19:40.837Z,14.23
2019-04-10T15:22:11.972Z,13.53
2019-04-10T15:24:43.325Z,13.33
2019-04-10T15:27:15.300Z,12.43
2019-04-10T15:29:47.103Z,13.90
2019-04-10T15:32:20.546Z,12.60
2019-04-10T15:34:51.593Z,13.10
2019-04-10T15:37:22.940Z,16.47
2019-04-10T15:39:54.453Z,14.57
2019-04-10T15:42:26.041Z,14.07
2019-04-10T15:45:00.596Z,13.80
2019-04-10T15:47:33.418Z,13.10
2019-04-10T15:50:06.909Z,13.57
2019-04-10T15:52:39.790Z,12.60
2019-04-10T15:55:13.349Z,13.13
2019-04-10T15:57:53.157Z,13.93
2019-04-10T16:00:21.213Z,12.53
2019-04-10T16:02:53.885Z,13.10
2019-04-10T16:05:25.821Z,13.30
2019-04-10T16:07:57.179Z,13.97
2019-04-10T16:10:55.125Z,13.70
2019-04-10T16:13:36.766Z,15.47
2019-04-10T16:16:40.349Z,13.83
2019-04-10T16:19:34.518Z,13.97
2019-04-10T16:22:14.897Z,14.97
2019-04-10T16:24:47.140Z,14.43
2019-04-10T16:27:20.355Z,14.03
2019-04-10T16:29:51.558Z,13.43
2019-04-10T16:32:24.430Z,14.93
2019-04-10T16:34:56.789Z,14.13
2019-04-10T16:37:28.203Z,13.17
2019-04-10T16:40:04.073Z,14.20
2019-04-10T16:42:34.832Z,12.93
2019-04-10T16:45:08.088Z,13.73
2019-04-10T16:47:39.507Z,14.23
2019-04-10T16:50:11.258Z,13.27
2019-04-10T16:52:42.470Z,13.50
2019-04-10T16:55:15.680Z,14.93
2019-04-10T16:57:47.318Z,13.13
2019-04-10T17:00:20.621Z,14.07
2019-04-10T17:02:52.646Z,14.13
2019-04-10T17:05:24.806Z,15.17
2019-04-10T17:07:57.316Z,15.70
2019-04-10T17:10:29.791Z,19.07
2019-04-10T17:13:02.368Z,17.60
2019-04-10T17:15:36.411Z,20.70
2019-04-10T17:18:08.739Z,20.43
2019-04-10T17:20:42.740Z,21.47
2019-04-10T17:23:16.490Z,22.43
2019-04-10T17:25:48.739Z,17.20
2019-04-10T17:28:22.942Z,20.13
2019-04-10T17:30:53.905Z,20.07
2019-04-10T17:33:26.749Z,21.83
2019-04-10T17:36:00.146Z,20.33
2019-04-10T17:38:31.846Z,20.13
2019-04-10T17:41:04.499Z,20.90
2019-04-10T17:43:37.109Z,22.10
2019-04-10T17:46:09.226Z,23.53
2019-04-10T17:48:42.040Z,26.07
2019-04-10T17:51:14.076Z,31.37
2019-04-10T17:53:45.428Z,23.63
2019-04-10T17:56:16.834Z,27.97
2019-04-10T17:58:48.143Z,24.73
2019-04-10T18:01:21.126Z,27.33
2019-04-10T18:03:57.266Z,27.47
2019-04-10T18:06:25.632Z,33.00
2019-04-10T18:08:57.137Z,36.30
2019-04-10T18:11:28.322Z,38.30
2019-04-10T18:14:00.786Z,37.87
2019-04-10T18:16:32.058Z,40.87
2019-04-10T18:19:04.308Z,41.73
2019-04-10T18:21:35.422Z,42.97
2019-04-10T18:24:06.618Z,40.10
2019-04-10T18:26:37.707Z,41.77
2019-04-10T18:29:09.990Z,43.80
2019-04-10T18:31:41.144Z,43.33
2019-04-10T18:34:13.833Z,42.80
2019-04-10T18:36:46.420Z,43.47
2019-04-10T18:39:18.979Z,40.17
2019-04-10T18:41:49.961Z,37.23
2019-04-10T18:44:21.245Z,40.03
2019-04-10T18:46:52.287Z,42.90
2019-04-10T18:49:23.705Z,41.97
2019-04-10T18:51:56.262Z,41.70
2019-04-10T18:54:27.273Z,40.10
2019-04-10T18:56:59.709Z,38.03
2019-04-10T19:00:08.092Z,36.73
2019-04-10T19:03:01.298Z,37.23
2019-04-10T19:05:36.939Z,37.67
2019-04-10T19:08:11.152Z,36.03
2019-04-10T19:10:41.422Z,35.07
2019-04-10T19:13:12.978Z,34.90
2019-04-10T19:15:44.849Z,32.17
2019-04-10T19:18:16.522Z,32.70
2019-04-10T19:20:49.141Z,35.33
2019-04-10T19:23:21.007Z,31.37
2019-04-10T19:25:52.975Z,30.17
2019-04-10T19:28:32.292Z,31.43
2019-04-10T19:31:12.916Z,29.53
2019-04-10T19:33:37.306Z,28.63
2019-04-10T19:36:09.835Z,29.83
2019-04-10T19:38:41.906Z,30.13
2019-04-10T19:41:23.372Z,28.97
2019-04-10T19:43:46.406Z,29.67
2019-04-10T19:46:17.581Z,29.97
2019-04-10T19:48:50.786Z,27.73
2019-04-10T19:51:21.810Z,28.63
2019-04-10T19:53:53.423Z,27.93
2019-04-10T19:56:24.809Z,26.37
2019-04-10T19:58:56.541Z,25.57
2019-04-10T20:01:30.050Z,25.83
2019-04-10T20:04:02.023Z,25.50
2019-04-10T20:06:33.433Z,25.57
2019-04-10T20:09:06.435Z,24.00
2019-04-10T20:11:44.619Z,23.50
2019-04-10T20:14:13.738Z,22.07
2019-04-10T20:16:44.168Z,23.67
2019-04-10T20:19:15.547Z,22.05
2019-04-10T20:21:46.818Z,22.73
2019-04-10T20:24:18.876Z,22.30
2019-04-10T20:26:50.383Z,22.60
2019-04-10T20:29:21.756Z,22.60
2019-04-10T20:31:55.285Z,23.80
2019-04-10T20:34:27.460Z,23.07
2019-04-10T20:37:05.889Z,23.30
2019-04-10T20:39:33.525Z,23.60
2019-04-10T20:42:05.729Z,25.37
2019-04-10T20:44:38.240Z,24.87
2019-04-10T20:47:10.785Z,25.10
2019-04-10T20:49:42.930Z,26.40
2019-04-10T20:52:14.679Z,26.97
2019-04-10T20:54:46.885Z,36.90
2019-04-10T20:57:19.202Z,30.63
2019-04-10T20:59:51.009Z,27.70
2019-04-10T21:02:22.339Z,50.73
2019-04-10T21:05:00.517Z,28.50
2019-04-10T21:07:27.596Z,28.33
2019-04-10T21:09:58.863Z,27.37
2019-04-10T21:12:30.399Z,26.50
2019-04-10T21:15:01.494Z,29.40
2019-04-10T21:17:34.484Z,26.33
2019-04-10T21:20:07.886Z,26.07
2019-04-10T21:22:40.469Z,23.40
2019-04-10T21:25:11.997Z,25.82
2019-04-10T21:27:44.075Z,23.90
2019-04-10T21:30:52.981Z,25.70
2019-04-10T21:33:46.998Z,23.73
2019-04-10T21:36:18.717Z,20.68
2019-04-10T21:38:50.660Z,23.45
2019-04-10T21:41:22.089Z,23.92
2019-04-10T21:43:53.890Z,24.52
2019-04-10T21:46:25.220Z,23.70
2019-04-10T21:48:57.370Z,22.42
2019-04-10T21:51:28.810Z,22.70
2019-04-10T21:54:00.226Z,22.85
2019-04-10T21:56:31.805Z,23.18
2019-04-10T21:59:05.371Z,21.68
2019-04-10T22:01:38.103Z,22.30
2019-04-10T22:04:10.287Z,21.87
2019-04-10T22:07:01.477Z,20.80
2019-04-10T22:09:52.921Z,18.90
2019-04-10T22:12:31.589Z,19.55
2019-04-10T22:15:00.168Z,18.90
2019-04-10T22:17:32.168Z,20.10
2019-04-10T22:20:03.757Z,18.62
2019-04-10T22:22:35.265Z,18.80
2019-04-10T22:25:07.882Z,19.48
2019-04-10T22:27:39.526Z,18.73
2019-04-10T22:30:12.452Z,17.87
2019-04-10T22:32:44.405Z,20.20
2019-04-10T22:35:15.865Z,19.55
2019-04-10T22:37:48.494Z,20.75
2019-04-10T22:40:20.080Z,19.10
2019-04-10T22:42:51.597Z,19.52
2019-04-10T22:45:29.320Z,19.80
2019-04-10T22:48:02.172Z,21.12
2019-04-10T22:50:34.455Z,19.62
2019-04-10T22:53:06.893Z,20.05
2019-04-10T22:55:38.459Z,19.40
2019-04-10T22:58:10.781Z,19.52
2019-04-10T23:00:42.554Z,19.40
2019-04-10T23:03:14.209Z,19.73
2019-04-10T23:05:46.869Z,19.65
2019-04-10T23:08:18.521Z,19.52
2019-04-10T23:10:51.157Z,19.40
2019-04-10T23:13:23.726Z,19.52
2019-04-10T23:15:56.475Z,19.32
2019-04-10T23:18:28.147Z,20.20
2019-04-10T23:21:00.601Z,20.35
2019-04-10T23:23:32.810Z,21.15
2019-04-10T23:26:04.844Z,19.37
2019-04-10T23:28:37.719Z,20.35
2019-04-10T23:31:10.061Z,22.00
2019-04-10T23:33:41.950Z,19.87
2019-04-10T23:36:13.958Z,20.10
2019-04-10T23:38:45.868Z,20.85
2019-04-10T23:41:17.756Z,20.65
2019-04-10T23:43:49.120Z,20.12
2019-04-10T23:46:20.335Z,20.75
2019-04-10T23:48:52.929Z,20.25
2019-04-10T23:51:25.197Z,20.00
2019-04-10T23:53:57.214Z,18.35
2019-04-10T23:56:29.426Z,19.87
2019-04-10T23:59:01.143Z,19.42
